Walkden, United Kingdom
Current Conditions -  °F | °C
As of 6:20 AM on Saturday 29 Nov 2014 (Local Time) from EGCC Reporting Station
Light Rain Light Rain  
Wind Chill: 10°   Ceiling: Unl
Heat Index: 10°   Visibility: 6mi
Dew Point:   Wind: 8mph
Humidity: 94%   Direction: 80°E
Pressure: 29.8"   Gusts: NA
Location:  53.52°N, 2.4°W
Report Text: EGCC 290620Z 08007KT 9000 -RA FEW012 10/09 Q1009
Loading
Personal Weather Stations






























Interactive Weather Map New forecast layout! Learn more

10-Day Weather Forecast

Advertisements
Track Severe Weather on mobile